Time;durP1;ratioP1;P1;durP2;ratioP2;P2;SDS_P1;SDS_P2;PMS_P1;PMS_P2;Temp;Humidity;BMP_temperature;BMP_pressure;BME280_temperature;BME280_humidity;BME280_pressure;Samples;Min_cycle;Max_cycle;Signal;HPM_P1;HPM_P2
2024/04/09 00:00:34;;;;;;;19.15;5.80;;;;;;;21.64;44.30;97977.38;5476028;26;20772;-75
2024/04/09 00:03:00;;;;;;;11.82;4.30;;;;;;;21.60;44.65;97980.91;5478496;26;20270;-74
2024/04/09 00:05:31;;;;;;;14.60;5.25;;;;;;;21.44;44.99;97991.66;5472998;26;20615;-74
2024/04/09 00:07:59;;;;;;;19.65;5.72;;;;;;;21.56;44.68;97992.31;5466982;26;20274;-74
2024/04/09 00:10:25;;;;;;;19.33;5.28;;;;;;;21.60;43.67;97998.34;5473137;26;20273;-74
2024/04/09 00:12:52;;;;;;;19.38;5.38;;;;;;;21.50;45.05;98002.84;5469348;26;20267;-74
2024/04/09 00:15:19;;;;;;;24.33;5.78;;;;;;;21.49;45.24;98013.31;5479493;26;20781;-74
2024/04/09 00:17:45;;;;;;;12.77;4.45;;;;;;;21.48;45.19;98009.84;5481760;26;20268;-74
2024/04/09 00:20:15;;;;;;;12.45;5.03;;;;;;;21.29;45.63;98015.38;5471593;26;20301;-74
2024/04/09 00:22:42;;;;;;;20.48;5.90;;;;;;;21.28;45.14;98017.13;5480743;26;20998;-74
2024/04/09 00:25:10;;;;;;;20.50;5.85;;;;;;;21.46;43.65;98016.84;5460005;26;20243;-74
2024/04/09 00:27:36;;;;;;;15.43;5.68;;;;;;;21.68;41.97;98033.88;5476655;26;20231;-74
2024/04/09 00:30:07;;;;;;;16.20;4.68;;;;;;;21.60;43.19;98035.78;5459651;26;20232;-74
2024/04/09 00:32:36;;;;;;;17.20;5.70;;;;;;;21.53;43.06;98044.59;5466195;26;20234;-74
2024/04/09 00:35:03;;;;;;;20.15;5.00;;;;;;;21.43;43.91;98040.41;5438712;26;20294;-74
2024/04/09 00:37:30;;;;;;;9.13;3.90;;;;;;;21.36;44.42;98051.81;5468697;26;20229;-74
2024/04/09 00:39:57;;;;;;;15.02;4.13;;;;;;;21.32;44.84;98051.88;5461464;26;20270;-74
2024/04/09 00:42:23;;;;;;;8.05;3.70;;;;;;;21.24;44.75;98062.44;5440279;26;20633;-74
2024/04/09 00:44:50;;;;;;;13.30;3.85;;;;;;;21.17;45.34;98065.19;5470932;26;20231;-74
2024/04/09 00:47:17;;;;;;;7.47;3.33;;;;;;;20.92;46.67;98078.50;5459212;26;20706;-74
2024/04/09 00:49:45;;;;;;;8.65;3.50;;;;;;;20.83;47.63;98083.81;5465806;26;20334;-74
2024/04/09 00:52:13;;;;;;;11.18;3.33;;;;;;;20.76;48.49;98094.34;5464141;26;20719;-74
2024/04/09 00:54:40;;;;;;;11.80;4.22;;;;;;;20.60;49.58;98093.66;5456437;26;20228;-74
2024/04/09 00:57:06;;;;;;;7.78;3.50;;;;;;;20.58;49.88;98101.50;5470918;26;20238;-74
2024/04/09 00:59:33;;;;;;;14.32;7.15;;;;;;;20.53;50.43;98105.91;5460407;26;20754;-74
2024/04/09 01:02:01;;;;;;;11.85;5.10;;;;;;;20.42;50.97;98115.59;5460820;26;20282;-74
2024/04/09 01:04:28;;;;;;;8.90;4.13;;;;;;;20.29;52.14;98124.41;5458752;26;20714;-74
2024/04/09 01:06:55;;;;;;;8.10;2.90;;;;;;;20.25;52.63;98143.53;5470223;26;20416;-74
2024/04/09 01:09:21;;;;;;;8.88;3.33;;;;;;;20.09;54.15;98147.16;5467635;26;20227;-74
2024/04/09 01:11:48;;;;;;;7.82;2.85;;;;;;;19.98;55.26;98162.88;5460081;26;20332;-74
2024/04/09 01:14:15;;;;;;;7.30;2.92;;;;;;;19.71;56.84;98164.81;5474574;26;20235;-74
2024/04/09 01:16:41;;;;;;;8.20;2.83;;;;;;;19.83;57.07;98180.34;5459638;26;21083;-74
2024/04/09 01:19:08;;;;;;;7.63;2.90;;;;;;;19.59;58.30;98190.03;5459328;26;20223;-74
2024/04/09 01:21:35;;;;;;;7.65;3.25;;;;;;;19.50;59.39;98192.69;5454929;26;20605;-74
2024/04/09 01:24:02;;;;;;;6.60;2.72;;;;;;;19.56;59.15;98215.22;5451762;26;20290;-75
2024/04/09 01:26:29;;;;;;;6.35;3.38;;;;;;;19.48;60.15;98246.50;5468093;26;20235;-74
2024/04/09 01:28:58;;;;;;;11.35;5.25;;;;;;;19.36;61.09;98249.13;5475564;26;20231;-74
2024/04/09 01:31:25;;;;;;;12.48;6.93;;;;;;;19.25;61.90;98243.09;5475929;26;20285;-74
2024/04/09 01:33:51;;;;;;;12.00;6.63;;;;;;;19.28;61.87;98227.47;5444434;26;20770;-74
2024/04/09 01:36:20;;;;;;;9.60;5.90;;;;;;;19.22;62.56;98211.88;5455756;26;20311;-74
2024/04/09 01:38:48;;;;;;;9.82;5.22;;;;;;;19.29;62.46;98226.59;5470696;26;20242;-74
2024/04/09 01:41:16;;;;;;;7.57;4.53;;;;;;;19.12;63.45;98223.19;5436669;26;20227;-74
2024/04/09 01:43:42;;;;;;;10.52;4.15;;;;;;;18.89;64.67;98207.66;5472273;25;20233;-74
2024/04/09 01:46:09;;;;;;;8.13;3.60;;;;;;;18.99;64.73;98203.28;5456200;26;20715;-74
2024/04/09 01:48:37;;;;;;;7.10;3.22;;;;;;;18.85;64.97;98210.25;5458400;26;20254;-74
2024/04/09 01:51:11;;;;;;;5.47;2.88;;;;;;;18.83;65.34;98206.78;5473857;26;20732;-74
2024/04/09 01:53:42;;;;;;;3.30;2.40;;;;;;;18.79;65.11;98223.28;5474641;26;20241;-74
2024/04/09 01:56:09;;;;;;;5.03;2.40;;;;;;;18.82;65.39;98228.47;5465933;26;20232;-74
2024/04/09 01:58:36;;;;;;;6.18;2.25;;;;;;;18.78;66.04;98247.53;5462061;26;20232;-74
2024/04/09 02:01:06;;;;;;;9.00;4.38;;;;;;;18.68;65.98;98254.50;5458483;26;20243;-74
2024/04/09 02:03:34;;;;;;;8.70;5.97;;;;;;;18.54;66.63;98272.72;5474053;26;20726;-74
2024/04/09 02:06:02;;;;;;;8.98;7.00;;;;;;;18.58;67.08;98286.56;5454071;26;20236;-74
2024/04/09 02:08:29;;;;;;;9.30;7.00;;;;;;;18.47;67.48;98278.75;5471132;26;20272;-74
2024/04/09 02:10:55;;;;;;;7.35;3.58;;;;;;;18.25;69.69;98295.16;5462789;26;20236;-74
2024/04/09 02:13:24;;;;;;;2.90;1.98;;;;;;;18.12;71.54;98309.00;5469977;26;20231;-74
2024/04/09 02:15:52;;;;;;;3.83;2.38;;;;;;;18.08;71.56;98328.91;5462651;26;20236;-74
2024/04/09 02:18:18;;;;;;;3.63;1.90;;;;;;;17.81;73.44;98322.75;5472087;26;20257;-74
2024/04/09 02:20:45;;;;;;;4.18;2.10;;;;;;;17.81;72.75;98286.41;5464363;26;20285;-74
2024/04/09 02:23:12;;;;;;;5.25;1.95;;;;;;;17.79;73.19;98278.59;5462393;26;20232;-74
2024/04/09 02:25:40;;;;;;;5.63;2.10;;;;;;;17.65;73.70;98269.91;5474866;26;20626;-74
2024/04/09 02:28:08;;;;;;;3.97;2.10;;;;;;;17.59;75.01;98254.31;5470835;26;20596;-74
2024/04/09 02:30:34;;;;;;;5.28;2.30;;;;;;;17.42;76.23;98267.19;5458097;26;20272;-74
2024/04/09 02:33:01;;;;;;;5.88;2.35;;;;;;;17.36;77.46;98282.72;5463869;26;20980;-74
2024/04/09 02:35:28;;;;;;;5.72;2.65;;;;;;;17.51;76.81;98308.72;5476732;26;20235;-74
2024/04/09 02:37:55;;;;;;;5.00;2.80;;;;;;;17.49;77.24;98307.00;5444140;26;20273;-74
2024/04/09 02:40:22;;;;;;;5.10;2.85;;;;;;;17.60;77.34;98314.03;5475212;26;20257;-74
2024/04/09 02:42:49;;;;;;;6.93;2.38;;;;;;;17.57;77.97;98308.81;5462905;26;20231;-74
2024/04/09 02:45:17;;;;;;;6.50;3.00;;;;;;;17.45;79.82;98319.09;5459342;26;20404;-74
2024/04/09 02:47:44;;;;;;;5.15;2.90;;;;;;;17.19;82.06;98328.47;5458215;26;20240;-74
2024/04/09 02:50:12;;;;;;;4.90;2.67;;;;;;;17.33;81.79;98321.63;5470000;26;20227;-74
2024/04/09 02:52:38;;;;;;;8.30;3.45;;;;;;;17.07;84.06;98369.88;5463304;26;21151;-74
2024/04/09 02:55:06;;;;;;;3.67;2.33;;;;;;;16.98;85.73;98369.81;5455135;26;20228;-74
2024/04/09 02:57:33;;;;;;;1.80;1.63;;;;;;;16.74;88.35;98367.03;5472982;26;20252;-74
2024/04/09 02:59:59;;;;;;;3.53;1.98;;;;;;;16.67;89.35;98330.69;5455367;26;20776;-74
2024/04/09 03:02:26;;;;;;;6.07;2.22;;;;;;;16.57;91.63;98282.22;5466046;26;20243;-74
2024/04/09 03:04:53;;;;;;;6.22;2.22;;;;;;;16.65;92.80;98277.94;5440197;26;20228;-74
2024/04/09 03:07:20;;;;;;;5.78;2.65;;;;;;;16.43;95.92;98280.34;5460777;26;20287;-74
2024/04/09 03:09:46;;;;;;;6.95;3.40;;;;;;;16.54;95.95;98297.72;5464195;26;20768;-74
2024/04/09 03:12:13;;;;;;;8.27;3.53;;;;;;;16.51;96.45;98300.25;5459031;26;20838;-74
2024/04/09 03:14:40;;;;;;;8.23;3.58;;;;;;;16.43;97.86;98294.16;5462672;26;20836;-74
2024/04/09 03:17:06;;;;;;;5.40;3.10;;;;;;;16.39;98.59;98297.56;5464580;26;20238;-74
2024/04/09 03:19:33;;;;;;;8.85;5.57;;;;;;;16.41;99.16;98289.84;5468535;26;20273;-74
2024/04/09 03:22:00;;;;;;;9.57;6.65;;;;;;;16.42;98.87;98307.97;5465823;26;20262;-74
2024/04/09 03:24:26;;;;;;;10.50;7.93;;;;;;;16.26;100.00;98337.19;5466635;26;20255;-74
2024/04/09 03:26:53;;;;;;;12.82;9.65;;;;;;;16.22;100.00;98348.34;5474054;26;20230;-74
2024/04/09 03:29:20;;;;;;;13.45;9.52;;;;;;;16.27;100.00;98357.06;5454259;26;20726;-74
2024/04/09 03:31:47;;;;;;;10.70;7.78;;;;;;;16.16;100.00;98371.59;5461222;26;20243;-74
2024/04/09 03:34:14;;;;;;;9.75;5.20;;;;;;;16.18;100.00;98372.47;5472182;26;20230;-74
2024/04/09 03:36:41;;;;;;;7.60;4.47;;;;;;;16.20;100.00;98375.97;5467894;26;20248;-74
2024/04/09 03:39:08;;;;;;;5.47;2.83;;;;;;;16.12;100.00;98344.81;5482661;26;20327;-74
2024/04/09 03:41:35;;;;;;;3.55;2.60;;;;;;;16.02;100.00;98331.75;5451454;26;20289;-74
2024/04/09 03:44:03;;;;;;;5.60;3.80;;;;;;;16.06;100.00;98349.94;5480031;26;20260;-75
2024/04/09 03:46:30;;;;;;;5.28;3.95;;;;;;;15.93;100.00;98363.56;5472741;26;20850;-75
2024/04/09 03:48:57;;;;;;;6.30;3.28;;;;;;;15.89;100.00;98381.66;5461827;26;20330;-75
2024/04/09 03:51:24;;;;;;;3.53;2.78;;;;;;;15.81;100.00;98378.09;5473538;26;20236;-75
2024/04/09 03:53:51;;;;;;;8.55;3.35;;;;;;;15.84;100.00;98396.25;5469332;26;20883;-74
2024/04/09 03:56:18;;;;;;;4.90;3.10;;;;;;;15.80;100.00;98384.97;5470021;26;20234;-75
2024/04/09 03:58:46;;;;;;;6.30;3.17;;;;;;;15.75;99.76;98409.06;5468121;26;20792;-75
2024/04/09 04:01:12;;;;;;;5.72;2.78;;;;;;;15.82;98.88;98405.72;5460614;26;20228;-75
2024/04/09 04:03:41;;;;;;;3.72;2.65;;;;;;;15.71;99.07;98417.63;5466955;26;20274;-75
2024/04/09 04:06:08;;;;;;;4.38;2.70;;;;;;;15.60;99.45;98433.00;5479724;26;20241;-75
2024/04/09 04:08:38;;;;;;;2.53;2.28;;;;;;;15.61;98.56;98448.56;5448420;26;20653;-75
2024/04/09 04:11:06;;;;;;;8.38;2.67;;;;;;;15.56;98.37;98452.78;5467639;26;20840;-75
2024/04/09 04:13:34;;;;;;;7.13;3.17;;;;;;;15.46;99.69;98448.31;5476374;26;20766;-75
2024/04/09 04:16:05;;;;;;;10.75;4.95;;;;;;;15.44;99.15;98434.50;5474639;26;20582;-75
2024/04/09 04:18:36;;;;;;;8.43;5.07;;;;;;;15.45;99.98;98425.84;5449223;26;20324;-74
2024/04/09 04:21:05;;;;;;;10.45;9.02;;;;;;;15.43;99.78;98431.88;5439175;26;20552;-75
2024/04/09 04:23:36;;;;;;;13.02;8.55;;;;;;;15.22;100.00;98429.81;5468818;26;20307;-74
2024/04/09 04:26:04;;;;;;;9.15;5.40;;;;;;;15.13;100.00;98443.47;5483006;26;20281;-74
2024/04/09 04:28:32;;;;;;;8.10;5.57;;;;;;;15.19;100.00;98453.06;5461347;26;20280;-75
2024/04/09 04:30:59;;;;;;;6.40;4.43;;;;;;;15.07;100.00;98461.47;5432068;26;20313;-75
2024/04/09 04:33:27;;;;;;;8.13;5.38;;;;;;;15.00;100.00;98475.13;5465194;26;20273;-75
2024/04/09 04:35:54;;;;;;;6.95;5.40;;;;;;;15.04;100.00;98483.81;5440245;26;20359;-75
2024/04/09 04:38:20;;;;;;;7.10;4.03;;;;;;;15.03;100.00;98488.09;5460047;26;20355;-75
2024/04/09 04:40:47;;;;;;;3.45;2.60;;;;;;;14.82;100.00;98499.78;5453664;26;20732;-75
2024/04/09 04:43:14;;;;;;;3.58;2.40;;;;;;;14.78;100.00;98485.94;5458756;26;20715;-74
2024/04/09 04:45:42;;;;;;;2.88;2.40;;;;;;;14.78;100.00;98506.63;5455699;26;20301;-74
2024/04/09 04:48:09;;;;;;;2.55;1.80;;;;;;;14.76;100.00;98507.41;5470859;26;20727;-74
2024/04/09 04:50:39;;;;;;;2.17;1.98;;;;;;;14.84;100.00;98501.56;5455858;26;20265;-75
2024/04/09 04:53:06;;;;;;;3.67;2.28;;;;;;;14.78;100.00;98513.50;5461185;26;20269;-75
2024/04/09 04:55:33;;;;;;;2.42;2.17;;;;;;;14.59;100.00;98520.88;5457004;26;20235;-74
2024/04/09 04:58:01;;;;;;;4.00;2.72;;;;;;;14.39;100.00;98548.03;5465929;26;20227;-75
2024/04/09 05:00:28;;;;;;;3.20;2.38;;;;;;;14.50;100.00;98550.84;5457977;26;20251;-75
2024/04/09 05:02:55;;;;;;;1.33;1.23;;;;;;;14.16;100.00;98555.28;5459692;26;20290;-75
2024/04/09 05:05:23;;;;;;;1.13;0.80;;;;;;;13.87;100.00;98576.97;5467378;26;20350;-75
2024/04/09 05:07:50;;;;;;;1.10;1.00;;;;;;;13.87;100.00;98581.25;5470858;26;20272;-75
2024/04/09 05:10:19;;;;;;;1.63;1.10;;;;;;;13.69;100.00;98594.56;5463025;26;20234;-74
2024/04/09 05:12:47;;;;;;;1.95;1.27;;;;;;;13.62;97.58;98600.41;5466593;26;20270;-75
2024/04/09 05:15:13;;;;;;;2.28;1.42;;;;;;;13.59;97.50;98616.69;5464616;26;20282;-74
2024/04/09 05:17:44;;;;;;;1.30;1.20;;;;;;;13.48;96.03;98631.03;5464085;26;20234;-74
2024/04/09 05:20:14;;;;;;;5.78;1.83;;;;;;;13.55;96.48;98635.50;5461538;26;20303;-75
2024/04/09 05:22:42;;;;;;;1.85;1.00;;;;;;;13.35;95.76;98640.97;5468984;26;20231;-74
2024/04/09 05:25:12;;;;;;;1.30;1.13;;;;;;;13.19;94.78;98643.97;5461143;26;20277;-75
2024/04/09 05:27:39;;;;;;;1.42;1.33;;;;;;;13.20;95.50;98644.03;5459496;26;20621;-75
2024/04/09 05:30:07;;;;;;;1.88;1.40;;;;;;;13.19;96.14;98642.28;5456611;26;20227;-74
2024/04/09 05:32:35;;;;;;;1.25;1.05;;;;;;;13.35;95.04;98649.59;5457028;26;20265;-74
2024/04/09 05:35:02;;;;;;;3.40;2.50;;;;;;;13.06;94.67;98659.09;5456759;26;20291;-74
2024/04/09 05:37:29;;;;;;;4.13;1.75;;;;;;;13.18;96.11;98679.19;5455737;26;20620;-74
2024/04/09 05:39:57;;;;;;;2.42;1.50;;;;;;;13.19;95.93;98691.25;5455731;26;20232;-75
2024/04/09 05:42:24;;;;;;;2.10;1.90;;;;;;;12.87;96.89;98687.72;5459789;26;20243;-75
2024/04/09 05:44:51;;;;;;;2.50;1.55;;;;;;;12.90;96.73;98692.09;5459976;26;20232;-74
2024/04/09 05:47:18;;;;;;;1.58;1.40;;;;;;;12.94;96.60;98706.81;5471866;26;20235;-74
2024/04/09 05:49:47;;;;;;;2.30;1.35;;;;;;;12.85;97.73;98714.28;5473892;26;20273;-75
2024/04/09 05:52:13;;;;;;;1.40;1.30;;;;;;;12.63;99.57;98711.06;5479277;26;20231;-74
2024/04/09 05:54:42;;;;;;;2.88;1.60;;;;;;;12.49;99.68;98712.34;5459734;26;20239;-74
2024/04/09 05:57:12;;;;;;;4.43;1.80;;;;;;;12.55;100.00;98725.41;5474655;26;20228;-74
2024/04/09 05:59:38;;;;;;;4.63;2.45;;;;;;;12.33;100.00;98737.56;5471345;26;20243;-74
2024/04/09 06:02:06;;;;;;;3.25;2.13;;;;;;;12.48;100.00;98746.63;5459221;26;20228;-74
2024/04/09 06:04:32;;;;;;;3.95;1.90;;;;;;;12.47;100.00;98736.31;5474551;26;20351;-74
2024/04/09 06:07:01;;;;;;;3.00;1.63;;;;;;;12.46;100.00;98735.41;5446267;26;20285;-74
2024/04/09 06:09:28;;;;;;;2.42;1.45;;;;;;;12.53;100.00;98742.50;5470549;26;20236;-75
2024/04/09 06:11:55;;;;;;;3.40;1.50;;;;;;;12.45;100.00;98738.81;5470373;26;20235;-75
2024/04/09 06:14:22;;;;;;;6.18;2.17;;;;;;;12.32;100.00;98739.25;5445836;26;20230;-73
2024/04/09 06:16:49;;;;;;;3.63;2.40;;;;;;;12.30;100.00;98748.66;5474929;26;20234;-75
2024/04/09 06:19:16;;;;;;;2.17;1.40;;;;;;;12.06;100.00;98741.00;5463933;26;20240;-74
2024/04/09 06:21:43;;;;;;;2.63;1.30;;;;;;;12.31;100.00;98744.38;5461977;26;20230;-74
2024/04/09 06:24:09;;;;;;;2.45;1.40;;;;;;;12.33;99.48;98743.59;5471938;26;20450;-75
2024/04/09 06:26:36;;;;;;;2.03;1.58;;;;;;;12.42;98.33;98758.44;5465573;26;20239;-74
2024/04/09 06:29:04;;;;;;;1.80;1.50;;;;;;;12.21;98.61;98758.63;5459587;26;20344;-74
2024/04/09 06:31:30;;;;;;;3.03;1.25;;;;;;;12.35;99.25;98749.66;5466048;26;20277;-74
2024/04/09 06:33:57;;;;;;;2.55;1.30;;;;;;;12.27;98.74;98766.56;5462456;26;20685;-74
2024/04/09 06:36:25;;;;;;;2.90;1.60;;;;;;;12.29;99.31;98775.19;5455504;26;20270;-74
2024/04/09 06:38:53;;;;;;;3.65;1.48;;;;;;;12.30;99.37;98768.34;5435648;26;20348;-74
2024/04/09 06:41:20;;;;;;;2.67;1.50;;;;;;;12.14;100.00;98772.09;5462118;26;20261;-74
2024/04/09 06:43:46;;;;;;;4.25;1.50;;;;;;;11.98;100.00;98764.72;5464345;26;20274;-74
2024/04/09 06:46:13;;;;;;;4.63;1.90;;;;;;;12.19;100.00;98772.28;5457282;26;20299;-74
2024/04/09 06:48:40;;;;;;;2.80;1.55;;;;;;;12.19;100.00;98775.72;5456685;26;20235;-74
2024/04/09 06:51:07;;;;;;;1.92;1.23;;;;;;;12.33;100.00;98771.03;5447758;26;20228;-74
2024/04/09 06:53:33;;;;;;;4.57;2.35;;;;;;;12.31;100.00;98780.41;5470085;26;20302;-74
2024/04/09 06:56:00;;;;;;;1.92;1.48;;;;;;;12.24;100.00;98784.44;5460070;26;20236;-74
2024/04/09 06:58:27;;;;;;;4.15;1.63;;;;;;;12.10;100.00;98791.72;5459373;26;20243;-74
2024/04/09 07:00:54;;;;;;;2.83;1.35;;;;;;;12.07;100.00;98798.44;5462759;26;20316;-74
2024/04/09 07:03:21;;;;;;;4.97;1.30;;;;;;;12.20;100.00;98799.75;5457826;26;20242;-74
2024/04/09 07:05:48;;;;;;;4.22;1.50;;;;;;;12.10;100.00;98801.16;5461772;26;20235;-74
2024/04/09 07:08:15;;;;;;;4.15;1.50;;;;;;;12.09;100.00;98799.41;5441801;26;20232;-74
2024/04/09 07:10:41;;;;;;;1.63;1.50;;;;;;;11.96;100.00;98802.38;5459245;26;20228;-73
2024/04/09 07:13:08;;;;;;;2.83;1.65;;;;;;;11.86;100.00;98815.75;5468290;26;20278;-73
2024/04/09 07:15:34;;;;;;;2.13;1.77;;;;;;;11.97;100.00;98820.44;5473000;26;20230;-72
2024/04/09 07:18:03;;;;;;;3.42;1.50;;;;;;;11.88;100.00;98808.94;5456197;26;20787;-73
2024/04/09 07:20:30;;;;;;;5.70;1.77;;;;;;;12.11;100.00;98821.78;5464940;26;20812;-73
2024/04/09 07:22:57;;;;;;;3.28;1.70;;;;;;;12.00;100.00;98827.38;5458216;26;20236;-74
2024/04/09 07:25:24;;;;;;;3.10;1.70;;;;;;;12.20;100.00;98841.81;5441456;26;20336;-74
2024/04/09 07:27:51;;;;;;;4.65;1.60;;;;;;;11.81;98.47;98861.88;5438484;26;20331;-74
2024/04/09 07:30:17;;;;;;;2.88;1.60;;;;;;;11.84;97.16;98853.38;5439048;26;20226;-74
2024/04/09 07:32:44;;;;;;;6.63;2.00;;;;;;;12.03;96.83;98856.66;5455805;26;20235;-74
2024/04/09 07:35:11;;;;;;;5.07;2.17;;;;;;;12.07;97.32;98863.66;5454458;26;20335;-74
2024/04/09 07:37:38;;;;;;;5.47;1.63;;;;;;;11.92;96.88;98882.84;5460129;26;20329;-74
2024/04/09 07:40:06;;;;;;;4.10;1.98;;;;;;;11.87;98.83;98895.53;5459978;26;20231;-74
2024/04/09 07:42:33;;;;;;;1.55;1.45;;;;;;;11.74;97.58;98915.59;5462912;26;20234;-73
2024/04/09 07:45:00;;;;;;;3.90;1.95;;;;;;;11.68;97.06;98923.06;5466860;26;20732;-73
2024/04/09 07:47:26;;;;;;;3.83;1.52;;;;;;;11.57;96.33;98936.41;5428829;26;20607;-73
2024/04/09 07:49:53;;;;;;;2.85;1.65;;;;;;;11.43;96.88;98932.41;5449648;26;20654;-73
2024/04/09 07:52:20;;;;;;;2.80;1.42;;;;;;;11.51;96.33;98933.59;5466042;26;20907;-74
2024/04/09 07:54:46;;;;;;;1.40;1.30;;;;;;;11.45;96.09;98941.06;5461184;26;20274;-73
2024/04/09 07:57:14;;;;;;;3.92;1.40;;;;;;;11.56;95.06;98955.19;5444312;26;20347;-74
2024/04/09 07:59:43;;;;;;;2.80;1.80;;;;;;;11.55;94.07;98953.44;5441404;26;20283;-73
2024/04/09 08:02:11;;;;;;;3.63;1.60;;;;;;;11.37;95.03;98952.75;5439409;26;20744;-74
2024/04/09 08:04:39;;;;;;;2.75;1.63;;;;;;;11.68;93.52;98965.09;5478473;26;20265;-73
2024/04/09 08:07:07;;;;;;;3.05;2.00;;;;;;;11.88;93.06;98950.44;5461678;26;20292;-74
2024/04/09 08:09:35;;;;;;;2.72;2.15;;;;;;;11.98;93.07;98947.38;5461453;26;20230;-74
2024/04/09 08:12:01;;;;;;;3.28;1.88;;;;;;;12.10;91.41;98935.81;5470930;26;20239;-74
2024/04/09 08:14:28;;;;;;;4.70;2.35;;;;;;;12.28;92.60;98938.19;5461504;26;20298;-74
2024/04/09 08:16:55;;;;;;;2.90;1.90;;;;;;;12.80;88.96;98942.53;5462737;26;20235;-73
2024/04/09 08:19:22;;;;;;;4.43;1.98;;;;;;;12.99;88.26;98955.22;5465605;26;20223;-74
2024/04/09 08:21:49;;;;;;;3.00;2.10;;;;;;;13.20;87.37;98958.53;5461684;26;20235;-74
2024/04/09 08:24:20;;;;;;;2.35;1.73;;;;;;;13.08;86.79;98956.38;5475027;26;20287;-74
2024/04/09 08:26:47;;;;;;;3.53;1.63;;;;;;;13.03;85.34;98951.94;5448307;26;20921;-74
2024/04/09 08:29:16;;;;;;;3.22;1.70;;;;;;;12.99;84.58;98965.53;5451948;26;20228;-73
2024/04/09 08:31:44;;;;;;;4.20;1.70;;;;;;;13.00;84.04;98972.41;5434170;26;20288;-74
2024/04/09 08:34:11;;;;;;;3.42;1.63;;;;;;;13.03;84.17;98988.84;5461528;26;20227;-74
2024/04/09 08:36:42;;;;;;;5.00;2.03;;;;;;;12.56;84.41;99005.28;5471057;26;20234;-73
2024/04/09 08:39:09;;;;;;;2.80;1.95;;;;;;;12.38;84.45;99009.75;5453635;26;20243;-73
2024/04/09 08:41:37;;;;;;;3.70;2.08;;;;;;;12.11;85.21;99014.78;5435151;26;20350;-74
2024/04/09 08:44:04;;;;;;;3.40;1.80;;;;;;;12.22;84.73;98984.28;5452300;26;20249;-73
2024/04/09 08:46:33;;;;;;;3.58;1.80;;;;;;;11.88;85.07;98994.16;5464283;26;20284;-74
2024/04/09 08:49:01;;;;;;;3.15;1.80;;;;;;;11.73;84.23;98989.31;5466293;26;20226;-71
2024/04/09 08:51:28;;;;;;;4.03;2.38;;;;;;;11.77;84.78;98993.75;5457344;26;20234;-73
2024/04/09 08:53:57;;;;;;;4.47;2.70;;;;;;;11.69;85.27;98983.97;5462267;26;20227;-74
2024/04/09 08:56:24;;;;;;;4.15;2.83;;;;;;;11.88;86.82;98994.16;5467643;26;20287;-73
2024/04/09 08:58:51;;;;;;;3.75;2.50;;;;;;;11.96;85.89;98997.91;5453754;26;20294;-73
2024/04/09 09:01:28;;;;;;;5.50;2.85;;;;;;;12.11;85.19;99003.59;5471453;26;20262;-73
2024/04/09 09:03:55;;;;;;;5.95;2.72;;;;;;;11.88;86.38;99009.59;5436782;26;20283;-74
2024/04/09 09:06:23;;;;;;;4.15;2.25;;;;;;;11.79;86.60;99020.41;5467392;26;20266;-74
2024/04/09 09:08:50;;;;;;;2.83;2.05;;;;;;;11.77;87.47;99041.75;5459269;26;20303;-74
2024/04/09 09:11:21;;;;;;;5.15;2.17;;;;;;;11.72;86.22;99053.56;5436564;26;20274;-74
2024/04/09 09:13:48;;;;;;;5.38;2.53;;;;;;;11.56;86.20;99055.47;5433808;26;20761;-74
2024/04/09 09:16:14;;;;;;;5.13;2.10;;;;;;;11.75;87.07;99059.69;5462248;26;20721;-74
2024/04/09 09:18:41;;;;;;;6.50;2.75;;;;;;;11.54;88.46;99059.69;5463272;26;20594;-74
2024/04/09 09:21:08;;;;;;;4.00;2.00;;;;;;;11.64;87.58;99078.94;5462429;26;20282;-74
2024/04/09 09:23:36;;;;;;;4.75;2.10;;;;;;;11.55;88.29;99076.84;5460507;26;20261;-74
2024/04/09 09:26:05;;;;;;;2.60;2.25;;;;;;;11.51;87.24;99080.13;5441595;26;20247;-73
2024/04/09 09:28:32;;;;;;;4.28;2.38;;;;;;;11.49;86.93;99091.16;5463434;26;20238;-73
2024/04/09 09:30:58;;;;;;;3.85;1.85;;;;;;;11.38;86.30;99083.00;5455862;26;20348;-73
2024/04/09 09:33:29;;;;;;;4.13;2.20;;;;;;;11.52;86.36;99097.31;5459560;26;20818;-74
2024/04/09 09:35:56;;;;;;;7.38;2.83;;;;;;;11.49;86.31;99092.03;5467580;26;20723;-74
2024/04/09 09:38:26;;;;;;;5.88;3.30;;;;;;;11.55;86.25;99094.84;5456518;26;20368;-73
2024/04/09 09:40:54;;;;;;;3.95;2.20;;;;;;;11.52;85.32;99093.84;5462575;26;20232;-74
2024/04/09 09:43:22;;;;;;;4.60;2.13;;;;;;;11.72;84.89;99099.84;5439840;26;20846;-74
2024/04/09 09:45:49;;;;;;;4.03;2.30;;;;;;;11.77;84.31;99098.31;5461878;26;20725;-74
2024/04/09 09:48:19;;;;;;;3.58;2.35;;;;;;;11.57;84.71;99105.22;5461524;26;20298;-74
2024/04/09 09:50:47;;;;;;;3.28;2.25;;;;;;;11.62;85.30;99103.69;5460384;26;20243;-74
2024/04/09 09:53:13;;;;;;;5.22;2.33;;;;;;;11.83;84.85;99088.28;5465495;26;20294;-73
2024/04/09 09:55:42;;;;;;;4.88;2.22;;;;;;;11.71;85.53;99082.66;5455697;26;20309;-72
2024/04/09 09:58:12;;;;;;;4.40;2.33;;;;;;;11.78;85.97;99094.94;5467900;26;20231;-74
2024/04/09 10:00:40;;;;;;;4.18;2.20;;;;;;;11.68;85.09;99100.50;5469522;26;20704;-74
2024/04/09 10:03:07;;;;;;;4.40;2.08;;;;;;;11.68;84.82;99093.69;5464686;26;20314;-74
2024/04/09 10:05:35;;;;;;;4.53;2.42;;;;;;;11.84;83.78;99096.06;5457565;26;20338;-73
2024/04/09 10:08:03;;;;;;;6.85;2.80;;;;;;;12.06;81.25;99097.78;5454149;26;20335;-74
2024/04/09 10:10:30;;;;;;;2.28;1.77;;;;;;;12.32;79.67;99099.66;5456243;26;20243;-73
2024/04/09 10:13:07;;;;;;;4.05;2.13;;;;;;;12.64;77.49;99095.69;5461924;26;20758;-74
2024/04/09 10:15:43;;;;;;;3.90;2.35;;;;;;;12.62;76.04;99092.16;5459432;26;20243;-73
2024/04/09 10:18:26;;;;;;;5.35;2.35;;;;;;;12.55;76.35;99098.81;5467702;26;20231;-73
2024/04/09 10:20:53;;;;;;;4.80;2.60;;;;;;;12.66;75.42;99104.34;5433297;26;21337;-74
2024/04/09 10:23:20;;;;;;;6.70;2.75;;;;;;;12.59;75.11;99097.22;5462706;26;20273;-73
2024/04/09 10:25:47;;;;;;;6.07;2.67;;;;;;;12.85;74.73;99104.22;5428847;26;20777;-73
2024/04/09 10:28:32;;;;;;;5.35;2.42;;;;;;;12.77;75.18;99100.47;5441342;26;20234;-73
2024/04/09 10:31:02;;;;;;;3.35;2.10;;;;;;;12.95;74.75;99087.38;5459677;26;20234;-74
2024/04/09 10:33:39;;;;;;;5.45;2.72;;;;;;;12.87;75.12;99088.78;5427971;26;20232;-73
2024/04/09 10:36:08;;;;;;;2.92;2.00;;;;;;;12.88;75.57;99091.44;5454362;26;20745;-74
2024/04/09 10:38:41;;;;;;;4.07;2.38;;;;;;;12.75;75.15;99096.09;5462978;26;20238;-74
2024/04/09 10:41:09;;;;;;;2.90;1.80;;;;;;;12.62;75.71;99095.63;5441257;26;20311;-74
2024/04/09 10:43:35;;;;;;;5.45;2.50;;;;;;;12.93;75.95;99109.63;5465130;26;20269;-74
2024/04/09 10:46:04;;;;;;;3.95;2.38;;;;;;;12.91;75.15;99116.41;5448464;26;20247;-73
2024/04/09 10:48:40;;;;;;;3.05;1.88;;;;;;;13.20;75.51;99114.91;5449157;26;20334;-74
2024/04/09 10:51:08;;;;;;;7.07;2.50;;;;;;;13.34;72.86;99099.06;5453245;26;20232;-74
2024/04/09 10:53:35;;;;;;;2.78;1.80;;;;;;;13.57;71.64;99108.47;5467423;26;20281;-73
2024/04/09 10:56:03;;;;;;;3.13;1.90;;;;;;;13.27;71.16;99116.88;5466686;26;20356;-74
2024/04/09 10:58:29;;;;;;;2.83;1.80;;;;;;;13.14;71.19;99120.72;5455165;26;20266;-75
2024/04/09 11:00:57;;;;;;;3.17;2.00;;;;;;;13.35;71.32;99111.13;5433443;26;20239;-74
2024/04/09 11:03:25;;;;;;;3.25;1.60;;;;;;;13.31;70.57;99111.00;5438045;26;20235;-74
2024/04/09 11:05:52;;;;;;;2.08;1.55;;;;;;;13.21;70.58;99120.09;5455048;26;20231;-74
2024/04/09 11:08:28;;;;;;;3.95;1.83;;;;;;;12.99;71.88;99115.00;5439151;26;20238;-74
2024/04/09 11:10:57;;;;;;;7.25;3.25;;;;;;;13.12;73.66;99119.78;5467007;26;20273;-74
2024/04/09 11:13:24;;;;;;;4.70;2.92;;;;;;;13.25;73.71;99119.38;5463566;26;20231;-74
2024/04/09 11:15:50;;;;;;;7.22;4.43;;;;;;;13.24;72.44;99104.72;5456040;26;20238;-74
2024/04/09 11:18:20;;;;;;;4.53;2.22;;;;;;;13.26;71.18;99116.00;5459267;26;20230;-74
2024/04/09 11:20:59;;;;;;;5.18;2.47;;;;;;;13.32;69.52;99116.19;5451706;26;20569;-74
2024/04/09 11:23:28;;;;;;;3.63;1.95;;;;;;;13.14;68.63;99131.03;5450793;26;20290;-74
2024/04/09 11:25:55;;;;;;;3.45;1.70;;;;;;;13.32;68.42;99110.16;5442122;26;20235;-74
2024/04/09 11:28:22;;;;;;;4.80;1.75;;;;;;;13.40;67.90;99099.28;5433494;26;20337;-74
2024/04/09 11:30:55;;;;;;;2.38;1.70;;;;;;;13.64;67.58;99094.94;5465768;26;20280;-74
2024/04/09 11:33:24;;;;;;;3.65;1.85;;;;;;;13.86;67.48;99085.31;5463302;26;20223;-74